createdAt,value
2019-05-25T00:00:30.980Z,3.43
2019-05-25T00:02:56.778Z,3.40
2019-05-25T00:05:22.575Z,3.73
2019-05-25T00:07:48.427Z,3.60
2019-05-25T00:10:14.300Z,3.30
2019-05-25T00:12:40.073Z,3.67
2019-05-25T00:15:06.059Z,3.80
2019-05-25T00:17:31.853Z,3.13
2019-05-25T00:19:57.642Z,3.33
2019-05-25T00:22:23.467Z,2.83
2019-05-25T00:24:49.410Z,3.00
2019-05-25T00:27:15.348Z,3.57
2019-05-25T00:29:41.110Z,4.00
2019-05-25T00:32:06.922Z,3.07
2019-05-25T00:34:32.717Z,3.27
2019-05-25T00:36:58.499Z,3.07
2019-05-25T00:39:24.294Z,3.23
2019-05-25T00:41:50.070Z,3.10
2019-05-25T00:44:15.895Z,3.17
2019-05-25T00:46:41.663Z,3.20
2019-05-25T00:49:07.478Z,3.50
2019-05-25T00:51:33.263Z,3.83
2019-05-25T00:53:59.048Z,3.30
2019-05-25T00:56:24.847Z,3.43
2019-05-25T00:58:51.190Z,3.37
2019-05-25T01:01:16.960Z,3.20
2019-05-25T01:03:42.758Z,3.07
2019-05-25T01:06:08.568Z,3.50
2019-05-25T01:08:34.359Z,3.07
2019-05-25T01:11:00.159Z,3.03
2019-05-25T01:13:25.956Z,2.70
2019-05-25T01:15:51.745Z,3.77
2019-05-25T01:18:17.542Z,3.40
2019-05-25T01:20:43.438Z,3.10
2019-05-25T01:23:09.237Z,3.20
2019-05-25T01:25:35.028Z,2.70
2019-05-25T01:28:00.808Z,3.40
2019-05-25T01:30:26.623Z,3.13
2019-05-25T01:32:52.403Z,3.37
2019-05-25T01:35:18.177Z,3.60
2019-05-25T01:37:43.964Z,3.47
2019-05-25T01:40:10.352Z,3.10
2019-05-25T01:42:36.145Z,3.57
2019-05-25T01:45:03.943Z,3.67
2019-05-25T01:47:29.740Z,3.23
2019-05-25T01:49:55.527Z,3.03
2019-05-25T01:52:21.328Z,3.30
2019-05-25T01:54:59.424Z,3.10
2019-05-25T01:57:14.801Z,3.23
2019-05-25T01:59:40.591Z,3.33
2019-05-25T02:02:06.587Z,3.40
2019-05-25T02:04:32.368Z,3.37
2019-05-25T02:06:58.170Z,3.27
2019-05-25T02:09:23.975Z,3.30
2019-05-25T02:11:49.804Z,3.20
2019-05-25T02:14:15.581Z,2.93
2019-05-25T02:16:41.377Z,3.60
2019-05-25T02:19:07.167Z,3.27
2019-05-25T02:21:32.941Z,3.57
2019-05-25T02:23:58.745Z,3.50
2019-05-25T02:26:24.526Z,2.77
2019-05-25T02:28:50.333Z,3.20
2019-05-25T02:31:16.114Z,3.50
2019-05-25T02:33:41.914Z,3.57
2019-05-25T02:36:07.725Z,3.53
2019-05-25T02:38:33.529Z,3.30
2019-05-25T02:40:59.328Z,3.47
2019-05-25T02:43:25.144Z,3.57
2019-05-25T02:45:51.034Z,3.43
2019-05-25T02:48:16.829Z,3.33
2019-05-25T02:50:42.622Z,3.70
2019-05-25T02:53:08.413Z,3.43
2019-05-25T02:55:35.330Z,3.93
2019-05-25T02:58:01.301Z,3.00
2019-05-25T03:00:31.807Z,2.97
2019-05-25T03:02:57.824Z,3.40
2019-05-25T03:05:23.624Z,3.30
2019-05-25T03:07:49.954Z,2.90
2019-05-25T03:10:15.884Z,3.80
2019-05-25T03:12:42.578Z,3.50
2019-05-25T03:15:08.481Z,3.50
2019-05-25T03:17:34.264Z,3.33
2019-05-25T03:20:00.065Z,3.30
2019-05-25T03:22:25.877Z,3.70
2019-05-25T03:24:51.662Z,3.57
2019-05-25T03:27:17.449Z,3.40
2019-05-25T03:29:43.250Z,3.50
2019-05-25T03:32:09.054Z,3.47
2019-05-25T03:34:34.851Z,3.87
2019-05-25T03:37:01.036Z,3.40
2019-05-25T03:39:26.832Z,3.57
2019-05-25T03:41:52.621Z,3.70
2019-05-25T03:44:18.407Z,3.73
2019-05-25T03:46:44.204Z,3.53
2019-05-25T03:49:09.994Z,4.00
2019-05-25T03:51:35.808Z,3.47
2019-05-25T03:54:01.607Z,3.60
2019-05-25T03:56:27.424Z,3.70
2019-05-25T03:58:53.221Z,3.33
2019-05-25T04:01:19.127Z,3.17
2019-05-25T04:03:44.917Z,3.60
2019-05-25T04:06:10.715Z,3.53
2019-05-25T04:08:36.506Z,3.27
2019-05-25T04:11:02.404Z,3.53
2019-05-25T04:13:28.179Z,3.70
2019-05-25T04:15:53.986Z,3.30
2019-05-25T04:18:19.762Z,3.40
2019-05-25T04:20:45.584Z,3.20
2019-05-25T04:23:11.378Z,3.57
2019-05-25T04:25:37.193Z,2.93
2019-05-25T04:28:03.079Z,2.93
2019-05-25T04:30:28.895Z,2.80
2019-05-25T04:32:54.674Z,2.80
2019-05-25T04:35:20.465Z,2.80
2019-05-25T04:37:46.262Z,2.77
2019-05-25T04:40:12.144Z,3.10
2019-05-25T04:42:37.952Z,3.00
2019-05-25T04:45:04.829Z,2.80
2019-05-25T04:47:30.631Z,2.83
2019-05-25T04:49:56.425Z,2.53
2019-05-25T04:52:22.235Z,3.20
2019-05-25T04:54:48.018Z,3.07
2019-05-25T04:57:13.840Z,3.10
2019-05-25T04:59:39.626Z,3.20
2019-05-25T05:02:05.443Z,2.70
2019-05-25T05:04:31.229Z,2.67
2019-05-25T05:06:57.040Z,2.60
2019-05-25T05:09:22.828Z,2.80
2019-05-25T05:11:48.645Z,2.47
2019-05-25T05:14:14.426Z,2.70
2019-05-25T05:16:40.217Z,2.83
2019-05-25T05:19:06.016Z,2.73
2019-05-25T05:21:31.802Z,2.80
2019-05-25T05:23:57.623Z,2.37
2019-05-25T05:26:23.406Z,2.50
2019-05-25T05:28:49.354Z,2.37
2019-05-25T05:31:23.484Z,2.50
2019-05-25T05:33:42.822Z,2.33
2019-05-25T05:36:09.108Z,2.43
2019-05-25T05:38:35.140Z,2.17
2019-05-25T05:41:01.822Z,2.53
2019-05-25T05:43:27.630Z,2.70
2019-05-25T05:45:53.715Z,2.00
2019-05-25T05:48:22.925Z,2.00
2019-05-25T05:50:48.717Z,1.90
2019-05-25T05:53:15.304Z,1.97
2019-05-25T05:55:41.064Z,2.13
2019-05-25T05:58:06.872Z,2.37
2019-05-25T06:00:32.654Z,2.47
2019-05-25T06:02:58.469Z,2.37
2019-05-25T06:05:24.561Z,2.20
2019-05-25T06:07:50.506Z,2.30
2019-05-25T06:10:16.290Z,2.00
2019-05-25T06:12:42.086Z,1.93
2019-05-25T06:15:08.085Z,1.83
2019-05-25T06:17:33.883Z,2.10
2019-05-25T06:19:59.703Z,1.90
2019-05-25T06:22:25.497Z,2.03
2019-05-25T06:24:51.298Z,1.80
2019-05-25T06:27:26.982Z,1.80
2019-05-25T06:29:44.977Z,1.90
2019-05-25T06:32:10.766Z,1.83
2019-05-25T06:34:36.580Z,1.90
2019-05-25T06:37:02.370Z,1.90
2019-05-25T06:39:28.168Z,1.80
2019-05-25T06:41:53.955Z,2.20
2019-05-25T06:44:19.841Z,2.10
2019-05-25T06:46:45.657Z,1.80
2019-05-25T06:49:11.473Z,1.67
2019-05-25T06:51:37.273Z,1.70
2019-05-25T06:54:03.071Z,2.10
2019-05-25T06:56:28.850Z,1.60
2019-05-25T06:58:54.640Z,1.70
2019-05-25T07:01:20.445Z,1.90
2019-05-25T07:03:46.237Z,1.77
2019-05-25T07:06:12.053Z,1.50
2019-05-25T07:08:37.836Z,2.07
2019-05-25T07:11:03.760Z,1.87
2019-05-25T07:13:29.549Z,1.73
2019-05-25T07:15:55.339Z,1.70
2019-05-25T07:18:21.121Z,1.70
2019-05-25T07:20:46.910Z,2.20
2019-05-25T07:23:12.707Z,1.70
2019-05-25T07:25:38.503Z,2.10
2019-05-25T07:28:04.298Z,2.07
2019-05-25T07:30:30.102Z,2.00
2019-05-25T07:32:55.901Z,1.90
2019-05-25T07:35:21.696Z,2.13
2019-05-25T07:37:47.489Z,2.30
2019-05-25T07:40:13.390Z,2.00
2019-05-25T07:42:39.176Z,1.73
2019-05-25T07:45:06.383Z,1.80
2019-05-25T07:47:32.168Z,1.90
2019-05-25T07:49:57.968Z,2.17
2019-05-25T07:52:23.869Z,1.90
2019-05-25T07:54:49.658Z,2.33
2019-05-25T07:57:15.451Z,1.90
2019-05-25T07:59:41.235Z,2.30
2019-05-25T08:02:07.031Z,2.00
2019-05-25T08:04:32.834Z,2.10
2019-05-25T08:06:58.626Z,2.27
2019-05-25T08:09:24.425Z,2.00
2019-05-25T08:11:50.277Z,2.20
2019-05-25T08:14:16.158Z,1.93
2019-05-25T08:16:41.984Z,2.07
2019-05-25T08:19:07.771Z,2.57
2019-05-25T08:21:33.581Z,2.23
2019-05-25T08:23:59.406Z,2.40
2019-05-25T08:26:25.199Z,3.03
2019-05-25T08:28:50.985Z,2.20
2019-05-25T08:31:16.781Z,2.30
2019-05-25T08:33:42.571Z,2.37
2019-05-25T08:36:08.382Z,2.70
2019-05-25T08:38:34.178Z,2.80
2019-05-25T08:40:59.974Z,2.43
2019-05-25T08:43:25.768Z,2.60
2019-05-25T08:45:51.553Z,2.43
2019-05-25T08:48:17.347Z,2.80
2019-05-25T08:50:43.133Z,2.70
2019-05-25T08:53:08.947Z,2.50
2019-05-25T08:55:35.534Z,2.90
2019-05-25T08:58:01.369Z,2.77
2019-05-25T09:00:27.148Z,2.83
2019-05-25T09:02:52.946Z,2.60
2019-05-25T09:05:18.731Z,2.83
2019-05-25T09:07:44.528Z,2.60
2019-05-25T09:10:10.434Z,2.90
2019-05-25T09:12:36.229Z,2.50
2019-05-25T09:15:06.036Z,2.77
2019-05-25T09:17:31.913Z,2.80
2019-05-25T09:19:57.711Z,2.73
2019-05-25T09:22:23.537Z,3.13
2019-05-25T09:24:49.323Z,2.97
2019-05-25T09:27:15.127Z,3.00
2019-05-25T09:29:40.936Z,3.00
2019-05-25T09:32:07.277Z,3.30
2019-05-25T09:34:33.123Z,3.20
2019-05-25T09:36:58.906Z,3.23
2019-05-25T09:39:24.713Z,3.13
2019-05-25T09:41:50.500Z,3.30
2019-05-25T09:44:16.309Z,3.23
2019-05-25T09:46:42.088Z,3.27
2019-05-25T09:49:07.907Z,3.00
2019-05-25T09:51:33.693Z,3.20
2019-05-25T09:53:59.494Z,3.00
2019-05-25T09:56:25.296Z,2.80
2019-05-25T09:58:51.087Z,2.73
2019-05-25T10:01:16.874Z,2.87
2019-05-25T10:03:42.681Z,2.50
2019-05-25T10:06:12.281Z,2.50
2019-05-25T10:08:36.181Z,3.10
2019-05-25T10:11:01.965Z,2.47
2019-05-25T10:13:27.749Z,2.60
2019-05-25T10:15:53.549Z,2.47
2019-05-25T10:18:19.341Z,2.40
2019-05-25T10:20:45.137Z,3.07
2019-05-25T10:23:10.930Z,2.20
2019-05-25T10:25:36.721Z,2.20
2019-05-25T10:28:02.503Z,2.50
2019-05-25T10:30:28.286Z,2.30
2019-05-25T10:32:54.066Z,2.87
2019-05-25T10:35:19.874Z,2.30
2019-05-25T10:37:45.656Z,3.07
2019-05-25T10:40:11.947Z,2.77
2019-05-25T10:42:37.731Z,2.30
2019-05-25T10:45:06.439Z,3.17
2019-05-25T10:47:32.229Z,3.23
2019-05-25T10:49:58.086Z,2.80
2019-05-25T10:52:23.830Z,2.40
2019-05-25T10:54:49.604Z,2.50
2019-05-25T10:57:15.488Z,2.23
2019-05-25T10:59:52.568Z,2.63
2019-05-25T11:02:09.015Z,2.50
2019-05-25T11:04:34.813Z,2.37
2019-05-25T11:07:00.606Z,2.43
2019-05-25T11:09:26.400Z,2.40
2019-05-25T11:11:52.192Z,2.90
2019-05-25T11:14:17.988Z,2.73
2019-05-25T11:16:43.812Z,2.57
2019-05-25T11:19:09.612Z,3.10
2019-05-25T11:21:35.409Z,3.37
2019-05-25T11:24:01.220Z,3.23
2019-05-25T11:26:27.010Z,3.03
2019-05-25T11:28:52.798Z,2.63
2019-05-25T11:31:18.587Z,2.60
2019-05-25T11:33:44.369Z,2.40
2019-05-25T11:36:10.163Z,2.47
2019-05-25T11:38:35.943Z,3.03
2019-05-25T11:41:01.775Z,2.50
2019-05-25T11:43:27.555Z,2.90
2019-05-25T11:45:53.338Z,2.67
2019-05-25T11:48:19.132Z,2.87
2019-05-25T11:50:44.928Z,2.13
2019-05-25T11:53:10.725Z,2.70
2019-05-25T11:55:36.520Z,2.63
2019-05-25T11:58:02.338Z,2.60
2019-05-25T12:00:28.318Z,2.67
2019-05-25T12:02:54.133Z,2.50
2019-05-25T12:05:19.918Z,3.07
2019-05-25T12:07:45.717Z,3.27
2019-05-25T12:10:11.985Z,2.53
2019-05-25T12:12:37.863Z,2.47
2019-05-25T12:15:06.346Z,2.33
2019-05-25T12:17:32.151Z,2.60
2019-05-25T12:19:57.937Z,2.97
2019-05-25T12:22:23.767Z,3.00
2019-05-25T12:24:49.543Z,2.40
2019-05-25T12:27:15.330Z,3.10
2019-05-25T12:29:41.117Z,2.77
2019-05-25T12:32:06.922Z,2.50
2019-05-25T12:34:32.712Z,2.80
2019-05-25T12:36:58.489Z,2.70
2019-05-25T12:39:26.638Z,3.23
2019-05-25T12:41:51.987Z,2.70
2019-05-25T12:44:17.793Z,3.07
2019-05-25T12:46:43.598Z,2.50
2019-05-25T12:49:09.419Z,2.67
2019-05-25T12:51:35.207Z,2.90
2019-05-25T12:54:00.996Z,2.70
2019-05-25T12:56:26.777Z,1.97
2019-05-25T12:58:52.569Z,2.37
2019-05-25T13:01:18.363Z,2.47
2019-05-25T13:03:44.156Z,2.57
2019-05-25T13:06:09.953Z,2.13
2019-05-25T13:08:35.750Z,2.90
2019-05-25T13:11:01.540Z,3.13
2019-05-25T13:13:27.342Z,2.60
2019-05-25T13:15:53.159Z,3.07
2019-05-25T13:18:18.950Z,2.73
2019-05-25T13:20:44.856Z,2.67
2019-05-25T13:23:10.665Z,2.60
2019-05-25T13:25:36.458Z,3.60
2019-05-25T13:28:02.343Z,2.93
2019-05-25T13:30:28.145Z,3.10
2019-05-25T13:32:53.950Z,2.93
2019-05-25T13:35:19.752Z,2.80
2019-05-25T13:37:45.552Z,2.70
2019-05-25T13:40:11.457Z,2.83
2019-05-25T13:42:37.242Z,2.90
2019-05-25T13:45:05.139Z,2.63
2019-05-25T13:47:30.919Z,3.10
2019-05-25T13:49:56.724Z,3.00
2019-05-25T13:52:22.976Z,2.87
2019-05-25T13:54:49.731Z,3.20
2019-05-25T13:57:15.923Z,2.57
2019-05-25T13:59:41.717Z,3.23
2019-05-25T14:02:07.512Z,2.97
2019-05-25T14:04:33.298Z,2.70
2019-05-25T14:06:59.096Z,3.60
2019-05-25T14:09:24.887Z,3.17
2019-05-25T14:11:50.742Z,3.23
2019-05-25T14:14:16.550Z,3.20
2019-05-25T14:16:42.334Z,2.77
2019-05-25T14:19:08.836Z,2.97
2019-05-25T14:21:34.657Z,3.10
2019-05-25T14:24:00.436Z,3.40
2019-05-25T14:26:26.230Z,3.00
2019-05-25T14:28:52.030Z,2.57
2019-05-25T14:31:17.844Z,2.90
2019-05-25T14:33:43.638Z,2.60
2019-05-25T14:36:09.429Z,2.80
2019-05-25T14:38:35.218Z,3.03
2019-05-25T14:41:01.029Z,2.70
2019-05-25T14:43:26.804Z,3.07
2019-05-25T14:45:53.484Z,2.93
2019-05-25T14:48:19.405Z,2.80
2019-05-25T14:50:45.211Z,2.60
2019-05-25T14:53:10.993Z,3.20
2019-05-25T14:55:36.780Z,2.97
2019-05-25T14:58:02.576Z,3.40
2019-05-25T15:00:28.381Z,2.90
2019-05-25T15:02:54.173Z,2.93
2019-05-25T15:05:19.962Z,3.47
2019-05-25T15:07:45.756Z,3.47
2019-05-25T15:10:11.754Z,2.90
2019-05-25T15:12:37.571Z,2.73
2019-05-25T15:15:05.153Z,3.10
2019-05-25T15:17:31.270Z,3.17
2019-05-25T15:19:57.045Z,3.83
2019-05-25T15:22:22.873Z,3.17
2019-05-25T15:24:48.659Z,3.50
2019-05-25T15:27:14.456Z,3.77
2019-05-25T15:29:40.242Z,3.77
2019-05-25T15:32:18.921Z,3.10
2019-05-25T15:34:33.719Z,3.20
2019-05-25T15:36:59.512Z,3.50
2019-05-25T15:39:25.316Z,2.97
2019-05-25T15:41:51.387Z,2.97
2019-05-25T15:44:17.159Z,2.53
2019-05-25T15:46:43.045Z,3.10
2019-05-25T15:49:08.894Z,3.80
2019-05-25T15:51:34.740Z,3.20
2019-05-25T15:54:00.859Z,3.43
2019-05-25T15:56:26.679Z,2.93
2019-05-25T15:58:52.472Z,3.20
2019-05-25T16:01:18.277Z,3.23
2019-05-25T16:03:44.342Z,3.37
2019-05-25T16:06:10.151Z,3.23
2019-05-25T16:08:36.527Z,3.77
2019-05-25T16:11:02.659Z,3.23
2019-05-25T16:13:28.748Z,3.37
2019-05-25T16:15:54.542Z,2.63
2019-05-25T16:18:20.375Z,3.17
2019-05-25T16:20:46.149Z,3.10
2019-05-25T16:23:12.388Z,3.33
2019-05-25T16:25:43.029Z,3.87
2019-05-25T16:28:08.934Z,2.80
2019-05-25T16:30:34.736Z,2.40
2019-05-25T16:33:11.506Z,3.13
2019-05-25T16:35:28.266Z,3.10
2019-05-25T16:37:54.244Z,2.70
2019-05-25T16:40:20.198Z,3.20
2019-05-25T16:42:45.995Z,5.90
2019-05-25T16:45:12.490Z,2.77
2019-05-25T16:47:38.285Z,2.80
2019-05-25T16:50:07.100Z,2.60
2019-05-25T16:52:32.900Z,2.87
2019-05-25T16:54:58.686Z,2.67
2019-05-25T16:57:24.503Z,3.33
2019-05-25T16:59:50.311Z,3.63
2019-05-25T17:02:16.110Z,2.90
2019-05-25T17:04:41.916Z,2.80
2019-05-25T17:07:07.707Z,3.37
2019-05-25T17:09:33.513Z,3.40
2019-05-25T17:11:59.296Z,3.43
2019-05-25T17:14:25.151Z,2.90
2019-05-25T17:16:51.028Z,3.40
2019-05-25T17:19:16.795Z,2.30
2019-05-25T17:21:42.586Z,2.27
2019-05-25T17:24:08.618Z,2.40
2019-05-25T17:26:34.610Z,2.70
2019-05-25T17:29:00.529Z,3.33
2019-05-25T17:31:26.415Z,2.57
2019-05-25T17:33:52.508Z,2.30
2019-05-25T17:36:18.301Z,2.47
2019-05-25T17:38:44.085Z,1.97
2019-05-25T17:41:09.885Z,2.40
2019-05-25T17:43:35.664Z,2.30
2019-05-25T17:46:01.473Z,2.67
2019-05-25T17:48:27.442Z,2.50
2019-05-25T17:50:53.391Z,2.53
2019-05-25T17:53:19.318Z,2.50
2019-05-25T17:55:45.372Z,2.40
2019-05-25T17:58:11.305Z,2.37
2019-05-25T18:00:42.076Z,2.53
2019-05-25T18:03:08.102Z,2.30
2019-05-25T18:05:34.166Z,2.73
2019-05-25T18:08:00.099Z,2.20
2019-05-25T18:10:26.029Z,2.23
2019-05-25T18:12:51.934Z,2.33
2019-05-25T18:15:17.965Z,2.83
2019-05-25T18:17:43.911Z,2.97
2019-05-25T18:20:10.016Z,2.97
2019-05-25T18:22:36.001Z,2.33
2019-05-25T18:25:03.332Z,2.10
2019-05-25T18:27:29.115Z,2.37
2019-05-25T18:29:54.903Z,2.53
2019-05-25T18:32:20.993Z,2.53
2019-05-25T18:34:46.896Z,2.50
2019-05-25T18:37:12.707Z,2.37
2019-05-25T18:39:38.587Z,2.50
2019-05-25T18:42:04.383Z,2.40
2019-05-25T18:44:30.177Z,3.03
2019-05-25T18:46:56.069Z,2.50
2019-05-25T18:49:21.871Z,2.37
2019-05-25T18:51:47.705Z,2.67
2019-05-25T18:54:13.586Z,2.53
2019-05-25T18:56:39.490Z,2.23
2019-05-25T18:59:05.354Z,2.30
2019-05-25T19:01:31.225Z,2.50
2019-05-25T19:03:57.128Z,2.60
2019-05-25T19:06:22.975Z,2.43
2019-05-25T19:08:48.898Z,2.43
2019-05-25T19:11:14.827Z,2.90
2019-05-25T19:13:40.710Z,2.17
2019-05-25T19:16:06.619Z,2.60
2019-05-25T19:18:32.511Z,2.50
2019-05-25T19:20:58.411Z,3.00
2019-05-25T19:23:24.335Z,2.53
2019-05-25T19:25:50.246Z,2.70
2019-05-25T19:28:16.127Z,2.70
2019-05-25T19:30:41.919Z,2.30
2019-05-25T19:33:07.768Z,2.70
2019-05-25T19:35:33.564Z,2.53
2019-05-25T19:37:59.425Z,2.93
2019-05-25T19:40:25.195Z,2.77
2019-05-25T19:42:51.051Z,3.00
2019-05-25T19:45:16.933Z,3.13
2019-05-25T19:47:43.131Z,2.63
2019-05-25T19:50:09.223Z,2.43
2019-05-25T19:52:35.711Z,2.60
2019-05-25T19:55:03.694Z,2.70
2019-05-25T19:57:29.565Z,2.77
2019-05-25T19:59:55.380Z,2.80
2019-05-25T20:02:21.171Z,2.73
2019-05-25T20:04:46.960Z,2.77
2019-05-25T20:07:12.747Z,2.60
2019-05-25T20:09:38.569Z,2.73
2019-05-25T20:12:04.373Z,2.70
2019-05-25T20:14:30.164Z,3.20
2019-05-25T20:16:55.943Z,3.13
2019-05-25T20:19:21.737Z,3.07
2019-05-25T20:21:47.550Z,3.53
2019-05-25T20:24:13.340Z,3.93
2019-05-25T20:26:39.122Z,3.87
2019-05-25T20:29:04.928Z,4.20
2019-05-25T20:31:30.719Z,3.83
2019-05-25T20:33:56.531Z,3.83
2019-05-25T20:36:22.314Z,3.67
2019-05-25T20:38:48.134Z,3.53
2019-05-25T20:41:13.912Z,3.50
2019-05-25T20:43:39.706Z,3.33
2019-05-25T20:46:05.485Z,2.90
2019-05-25T20:48:31.280Z,3.23
2019-05-25T20:50:57.150Z,3.60
2019-05-25T20:53:22.933Z,3.20
2019-05-25T20:55:48.730Z,3.13
2019-05-25T20:58:14.525Z,3.77
2019-05-25T21:00:40.310Z,3.47
2019-05-25T21:03:06.951Z,3.33
2019-05-25T21:05:48.902Z,3.40
2019-05-25T21:08:00.502Z,3.10
2019-05-25T21:10:26.301Z,3.50
2019-05-25T21:12:52.090Z,3.33
2019-05-25T21:15:18.064Z,3.17
2019-05-25T21:17:43.878Z,3.83
2019-05-25T21:20:09.892Z,3.33
2019-05-25T21:22:35.706Z,3.33
2019-05-25T21:25:05.765Z,3.20
2019-05-25T21:27:30.432Z,3.60
2019-05-25T21:29:56.235Z,3.60
2019-05-25T21:32:22.251Z,3.17
2019-05-25T21:34:48.099Z,3.30
2019-05-25T21:37:13.888Z,2.90
2019-05-25T21:39:39.710Z,2.90
2019-05-25T21:42:05.500Z,2.87
2019-05-25T21:44:31.302Z,2.90
2019-05-25T21:46:57.116Z,3.03
2019-05-25T21:49:22.908Z,2.70
2019-05-25T21:51:48.714Z,3.00
2019-05-25T21:54:14.504Z,3.07
2019-05-25T21:56:40.322Z,2.93
2019-05-25T21:59:06.109Z,2.83
2019-05-25T22:01:31.996Z,3.20
2019-05-25T22:03:57.778Z,3.07
2019-05-25T22:06:24.789Z,3.20
2019-05-25T22:08:50.793Z,2.47
2019-05-25T22:11:16.606Z,2.90
2019-05-25T22:13:42.406Z,2.53
2019-05-25T22:16:08.214Z,2.90
2019-05-25T22:18:34.008Z,2.80
2019-05-25T22:20:59.840Z,2.83
2019-05-25T22:23:25.646Z,2.80
2019-05-25T22:25:51.468Z,2.87
2019-05-25T22:28:17.376Z,3.03
2019-05-25T22:30:43.168Z,2.73
2019-05-25T22:33:08.965Z,3.00
2019-05-25T22:35:34.761Z,2.80
2019-05-25T22:38:00.555Z,3.00
2019-05-25T22:40:26.355Z,2.87
2019-05-25T22:42:52.165Z,2.70
2019-05-25T22:45:17.940Z,3.13
2019-05-25T22:47:43.762Z,2.87
2019-05-25T22:50:09.630Z,3.00
2019-05-25T22:52:35.454Z,2.77
2019-05-25T22:55:01.389Z,3.07
2019-05-25T22:57:27.251Z,2.87
2019-05-25T22:59:53.032Z,2.87
2019-05-25T23:02:18.834Z,2.90
2019-05-25T23:04:44.617Z,2.97
2019-05-25T23:07:10.511Z,3.10
2019-05-25T23:09:36.332Z,2.93
2019-05-25T23:12:02.118Z,2.87
2019-05-25T23:14:27.909Z,3.40
2019-05-25T23:16:55.659Z,3.80
2019-05-25T23:19:21.479Z,3.13
2019-05-25T23:21:47.285Z,3.33
2019-05-25T23:24:13.088Z,3.10
2019-05-25T23:26:38.885Z,3.10
2019-05-25T23:29:04.699Z,3.30
2019-05-25T23:31:30.486Z,3.43
2019-05-25T23:34:05.662Z,3.90
2019-05-25T23:36:31.489Z,3.53
2019-05-25T23:38:57.294Z,3.70
2019-05-25T23:41:29.375Z,3.63
2019-05-25T23:43:55.217Z,3.53
2019-05-25T23:46:21.024Z,3.63
2019-05-25T23:48:46.832Z,3.53
2019-05-25T23:51:12.609Z,4.03
2019-05-25T23:53:38.429Z,4.27
2019-05-25T23:56:04.305Z,4.17
2019-05-25T23:58:30.452Z,3.83
